Terminal Aerodrome Forecast
Issued by NWS

Home | Current Version | Previous Version | Text Only | Print | Product List | Glossary On
Versions: 1 2 3 4 5 6 7 8 9 10 11 12
000
FTAK31 PANC 221739
TAFATK
TAF
PATK 221739Z 2218/2318 VRB03KT P6SM SCT050 OVC080
     FM230100 01005KT P6SM -SHSN SCT035 OVC060
     FM230600 02006KT 3SM -SN BR BKN015 OVC030=

USA.gov is the U.S. government's official web portal to all federal, state and local government web resources and services.